Time;durP1;ratioP1;P1;durP2;ratioP2;P2;SDS_P1;SDS_P2;PMS_P1;PMS_P2;Temp;Humidity;BMP_temperature;BMP_pressure;BME280_temperature;BME280_humidity;BME280_pressure;Samples;Min_cycle;Max_cycle;Signal;HPM_P1;HPM_P2
2024/02/24 00:01:45;;;;;;;;;;;;;;;;;;5071615;28;19973;-76
2024/02/24 00:04:10;;;;;;;;;;;;;;;;;;5068116;28;19948;-76
2024/02/24 00:06:35;;;;;;;;;;;;;;;;;;5071529;28;19916;-76
2024/02/24 00:09:00;;;;;;;;;;;;;;;;;;5068766;28;19947;-75
2024/02/24 00:11:25;;;;;;;;;;;;;;;;;;5068086;28;19955;-76
2024/02/24 00:13:50;;;;;;;;;;;;;;;;;;5070535;28;19917;-76
2024/02/24 00:16:15;;;;;;;;;;;;;;;;;;5070704;28;19927;-76
2024/02/24 00:18:41;;;;;;;;;;;;;;;;;;5071675;28;20356;-76
2024/02/24 00:21:06;;;;;;;;;;;;;;;;;;5072504;28;20292;-75
2024/02/24 00:23:32;;;;;;;;;;;;;;;;;;5072109;28;19913;-75
2024/02/24 00:25:57;;;;;;;;;;;;;;;;;;5070969;28;19920;-76
2024/02/24 00:28:22;;;;;;;;;;;;;;;;;;5071943;28;19913;-74
2024/02/24 00:30:47;;;;;;;;;;;;;;;;;;5071902;28;20376;-76
2024/02/24 00:33:12;;;;;;;;;;;;;;;;;;5069672;28;19943;-75
2024/02/24 00:35:39;;;;;;;;;;;;;;;;;;5071449;28;20310;-75
2024/02/24 00:38:04;;;;;;;;;;;;;;;;;;5070932;28;19925;-75
2024/02/24 00:40:29;;;;;;;;;;;;;;;;;;5071230;28;20622;-76
2024/02/24 00:42:54;;;;;;;;;;;;;;;;;;5069900;28;19934;-76
2024/02/24 00:45:19;;;;;;;;;;;;;;;;;;5071072;28;19912;-75
2024/02/24 00:47:44;;;;;;;;;;;;;;;;;;5070309;28;19920;-75
2024/02/24 00:50:10;;;;;;;;;;;;;;;;;;5052835;28;20011;-76
2024/02/24 00:52:35;;;;;;;;;;;;;;;;;;5070933;28;19920;-75
2024/02/24 00:55:00;;;;;;;;;;;;;;;;;;5071490;28;20011;-76
2024/02/24 00:57:25;;;;;;;;;;;;;;;;;;5071175;28;19923;-76
2024/02/24 00:59:50;;;;;;;;;;;;;;;;;;5054171;28;20003;-75
2024/02/24 01:02:16;;;;;;;;;;;;;;;;;;5071227;28;19913;-76
2024/02/24 01:04:41;;;;;;;;;;;;;;;;;;5070227;28;19916;-75
2024/02/24 01:07:07;;;;;;;;;;;;;;;;;;5072147;28;19923;-78
2024/02/24 01:09:32;;;;;;;;;;;;;;;;;;5070230;28;19973;-77
2024/02/24 01:11:57;;;;;;;;;;;;;;;;;;5070674;28;19912;-78
2024/02/24 01:14:22;;;;;;;;;;;;;;;;;;5069955;28;19943;-76
2024/02/24 01:16:47;;;;;;;;;;;;;;;;;;5052112;28;19912;-76
2024/02/24 01:19:12;;;;;;;;;;;;;;;;;;5067891;28;19916;-77
2024/02/24 01:21:37;;;;;;;;;;;;;;;;;;5071279;28;19952;-77
2024/02/24 01:24:03;;;;;;;;;;;;;;;;;;5070568;28;19916;-76
2024/02/24 01:26:28;;;;;;;;;;;;;;;;;;5071047;28;19923;-78
2024/02/24 01:28:53;;;;;;;;;;;;;;;;;;5069581;28;19912;-76
2024/02/24 01:31:18;;;;;;;;;;;;;;;;;;5069654;28;20292;-76
2024/02/24 01:33:43;;;;;;;;;;;;;;;;;;5070495;28;20074;-76
2024/02/24 01:36:08;;;;;;;;;;;;;;;;;;5066775;28;19913;-76
2024/02/24 01:38:33;;;;;;;;;;;;;;;;;;5070456;28;20361;-76
2024/02/24 01:40:59;;;;;;;;;;;;;;;;;;5070774;28;20264;-76
2024/02/24 01:43:24;;;;;;;;;;;;;;;;;;5072296;28;20276;-76
2024/02/24 01:45:49;;;;;;;;;;;;;;;;;;5069297;28;20442;-76
2024/02/24 01:48:17;;;;;;;;;;;;;;;;;;5069112;28;19916;-76
2024/02/24 01:50:42;;;;;;;;;;;;;;;;;;5068748;28;20479;-77
2024/02/24 01:53:08;;;;;;;;;;;;;;;;;;5068760;28;19916;-77
2024/02/24 01:55:33;;;;;;;;;;;;;;;;;;5069918;28;20332;-77
2024/02/24 01:57:58;;;;;;;;;;;;;;;;;;5067811;28;20008;-77
2024/02/24 02:00:23;;;;;;;;;;;;;;;;;;5050436;28;20376;-77
2024/02/24 02:02:48;;;;;;;;;;;;;;;;;;5070593;28;19934;-76
2024/02/24 02:05:13;;;;;;;;;;;;;;;;;;5066828;28;20339;-77
2024/02/24 02:07:38;;;;;;;;;;;;;;;;;;5068567;28;19927;-76
2024/02/24 02:10:05;;;;;;;;;;;;;;;;;;5067678;28;19919;-77
2024/02/24 02:12:31;;;;;;;;;;;;;;;;;;5068236;28;20055;-77
2024/02/24 02:14:56;;;;;;;;;;;;;;;;;;5069602;28;19999;-77
2024/02/24 02:17:21;;;;;;;;;;;;;;;;;;5067385;28;19920;-74
2024/02/24 02:19:46;;;;;;;;;;;;;;;;;;5068182;28;19922;-74
2024/02/24 02:22:13;;;;;;;;;;;;;;;;;;5070442;28;19917;-74
2024/02/24 02:24:38;;;;;;;;;;;;;;;;;;5068652;28;19920;-74
2024/02/24 02:27:06;;;;;;;;;;;;;;;;;;5071098;28;19924;-74
2024/02/24 02:29:31;;;;;;;;;;;;;;;;;;5053525;28;20015;-74
2024/02/24 02:31:57;;;;;;;;;;;;;;;;;;5070100;28;20001;-74
2024/02/24 02:34:23;;;;;;;;;;;;;;;;;;5068764;28;20377;-75
2024/02/24 02:36:48;;;;;;;;;;;;;;;;;;5068318;28;20003;-74
2024/02/24 02:39:13;;;;;;;;;;;;;;;;;;5066759;28;19913;-74
2024/02/24 02:41:38;;;;;;;;;;;;;;;;;;5070329;28;20019;-73
2024/02/24 02:44:03;;;;;;;;;;;;;;;;;;5069024;28;19916;-73
2024/02/24 02:46:28;;;;;;;;;;;;;;;;;;5049044;28;19912;-73
2024/02/24 02:48:53;;;;;;;;;;;;;;;;;;5068907;28;19916;-74
2024/02/24 02:51:19;;;;;;;;;;;;;;;;;;5067924;28;19948;-74
2024/02/24 02:53:44;;;;;;;;;;;;;;;;;;5071792;28;19916;-74
2024/02/24 02:56:09;;;;;;;;;;;;;;;;;;5068061;28;19965;-74
2024/02/24 02:58:34;;;;;;;;;;;;;;;;;;5067838;28;19923;-74
2024/02/24 03:00:59;;;;;;;;;;;;;;;;;;5071004;28;19920;-74
2024/02/24 03:03:24;;;;;;;;;;;;;;;;;;5070621;28;19913;-75
2024/02/24 03:05:50;;;;;;;;;;;;;;;;;;5072036;28;19912;-74
2024/02/24 03:08:15;;;;;;;;;;;;;;;;;;5071357;28;20296;-74
2024/02/24 03:10:40;;;;;;;;;;;;;;;;;;5067249;28;19912;-74
2024/02/24 03:13:05;;;;;;;;;;;;;;;;;;5066762;28;20405;-74
2024/02/24 03:15:30;;;;;;;;;;;;;;;;;;5068638;28;19913;-74
2024/02/24 03:17:56;;;;;;;;;;;;;;;;;;5069459;28;19916;-74
2024/02/24 03:20:21;;;;;;;;;;;;;;;;;;5067446;28;19913;-75
2024/02/24 03:25:30;;;;;;;;;;;;;;;;;;5065780;28;20023;-73
2024/02/24 03:27:55;;;;;;;;;;;;;;;;;;5071354;28;20002;-75
2024/02/24 03:30:20;;;;;;;;;;;;;;;;;;5067788;28;20525;-74
2024/02/24 03:32:46;;;;;;;;;;;;;;;;;;5070267;28;20882;-73
2024/02/24 03:35:11;;;;;;;;;;;;;;;;;;5069092;28;19920;-75
2024/02/24 03:37:36;;;;;;;;;;;;;;;;;;5071463;28;19919;-75
2024/02/24 03:40:01;;;;;;;;;;;;;;;;;;5066257;28;19912;-75
2024/02/24 03:42:26;;;;;;;;;;;;;;;;;;5069261;28;19935;-75
2024/02/24 03:44:51;;;;;;;;;;;;;;;;;;5068239;28;19955;-75
2024/02/24 03:47:16;;;;;;;;;;;;;;;;;;5068407;28;19959;-75
2024/02/24 03:49:42;;;;;;;;;;;;;;;;;;5068108;28;19916;-76
2024/02/24 03:52:07;;;;;;;;;;;;;;;;;;5070527;28;19916;-75
2024/02/24 03:54:32;;;;;;;;;;;;;;;;;;5073138;28;19917;-75
2024/02/24 03:56:57;;;;;;;;;;;;;;;;;;5072229;28;20015;-75
2024/02/24 03:59:22;;;;;;;;;;;;;;;;;;5067269;28;19912;-75
2024/02/24 04:01:47;;;;;;;;;;;;;;;;;;5074252;28;20372;-77
2024/02/24 04:04:15;;;;;;;;;;;;;;;;;;5072004;28;19920;-76
2024/02/24 04:06:40;;;;;;;;;;;;;;;;;;5073255;28;19919;-75
2024/02/24 04:09:05;;;;;;;;;;;;;;;;;;5073431;28;19920;-74
2024/02/24 04:11:31;;;;;;;;;;;;;;;;;;5070813;28;19917;-75
2024/02/24 04:13:56;;;;;;;;;;;;;;;;;;5075178;28;19924;-74
2024/02/24 04:16:21;;;;;;;;;;;;;;;;;;5071309;28;19912;-74
2024/02/24 04:18:46;;;;;;;;;;;;;;;;;;5071208;28;20261;-74
2024/02/24 04:21:11;;;;;;;;;;;;;;;;;;5076171;28;19934;-74
2024/02/24 04:23:36;;;;;;;;;;;;;;;;;;5072370;28;20392;-75
2024/02/24 04:26:01;;;;;;;;;;;;;;;;;;5070770;28;19924;-75
2024/02/24 04:28:27;;;;;;;;;;;;;;;;;;5072096;28;19916;-75
2024/02/24 04:30:52;;;;;;;;;;;;;;;;;;5071821;28;19920;-75
2024/02/24 04:33:17;;;;;;;;;;;;;;;;;;5071612;28;19928;-75
2024/02/24 04:35:42;;;;;;;;;;;;;;;;;;5071657;28;20276;-75
2024/02/24 04:38:07;;;;;;;;;;;;;;;;;;5069098;28;20270;-73
2024/02/24 04:40:33;;;;;;;;;;;;;;;;;;5054312;28;19916;-74
2024/02/24 04:42:58;;;;;;;;;;;;;;;;;;5070891;28;20395;-75
2024/02/24 04:45:23;;;;;;;;;;;;;;;;;;5070630;28;19954;-73
2024/02/24 04:47:48;;;;;;;;;;;;;;;;;;5069647;28;20019;-74
2024/02/24 04:50:14;;;;;;;;;;;;;;;;;;5070739;28;19960;-73
2024/02/24 04:52:39;;;;;;;;;;;;;;;;;;5072486;28;20304;-74
2024/02/24 04:55:04;;;;;;;;;;;;;;;;;;5071242;28;19912;-74
2024/02/24 04:57:30;;;;;;;;;;;;;;;;;;5071029;28;19916;-74
2024/02/24 04:59:55;;;;;;;;;;;;;;;;;;5070783;28;19920;-74
2024/02/24 05:02:22;;;;;;;;;;;;;;;;;;5070805;28;20376;-74
2024/02/24 05:04:47;;;;;;;;;;;;;;;;;;5071439;28;19920;-75
2024/02/24 05:07:12;;;;;;;;;;;;;;;;;;5051558;28;20577;-74
2024/02/24 05:09:37;;;;;;;;;;;;;;;;;;5051196;28;19926;-74
2024/02/24 05:12:02;;;;;;;;;;;;;;;;;;5070610;28;20394;-74
2024/02/24 05:14:28;;;;;;;;;;;;;;;;;;5072116;28;20375;-74
2024/02/24 05:16:53;;;;;;;;;;;;;;;;;;5053750;28;19912;-74
2024/02/24 05:19:18;;;;;;;;;;;;;;;;;;5052376;28;20007;-74
2024/02/24 05:21:44;;;;;;;;;;;;;;;;;;5066522;28;19924;-74
2024/02/24 05:24:09;;;;;;;;;;;;;;;;;;5070205;28;19915;-74
2024/02/24 05:26:35;;;;;;;;;;;;;;;;;;5071917;28;20007;-74
2024/02/24 05:29:00;;;;;;;;;;;;;;;;;;5066858;28;20300;-74
2024/02/24 05:31:25;;;;;;;;;;;;;;;;;;5068627;28;19948;-74
2024/02/24 05:33:50;;;;;;;;;;;;;;;;;;5070083;28;19916;-75
2024/02/24 05:36:15;;;;;;;;;;;;;;;;;;5068916;28;19928;-74
2024/02/24 05:38:40;;;;;;;;;;;;;;;;;;5069691;28;19967;-74
2024/02/24 05:41:05;;;;;;;;;;;;;;;;;;5052222;28;19919;-74
2024/02/24 05:43:32;;;;;;;;;;;;;;;;;;5072025;28;19931;-74
2024/02/24 05:45:57;;;;;;;;;;;;;;;;;;5069874;28;19912;-74
2024/02/24 05:48:22;;;;;;;;;;;;;;;;;;5069077;28;19919;-76
2024/02/24 05:50:57;;;;;;;;;;;;;;;;;;5067943;28;19917;-77
2024/02/24 05:53:22;;;;;;;;;;;;;;;;;;5071580;28;20063;-76
2024/02/24 05:55:47;;;;;;;;;;;;;;;;;;5070412;28;20035;-76
2024/02/24 05:58:12;;;;;;;;;;;;;;;;;;5072892;28;20380;-76
2024/02/24 06:00:39;;;;;;;;;;;;;;;;;;5069045;28;19927;-76
2024/02/24 06:03:07;;;;;;;;;;;;;;;;;;5069602;28;19967;-77
2024/02/24 06:05:32;;;;;;;;;;;;;;;;;;5069161;28;21188;-77
2024/02/24 06:07:57;;;;;;;;;;;;;;;;;;5067560;28;19928;-77
2024/02/24 06:10:23;;;;;;;;;;;;;;;;;;5069904;28;19962;-76
2024/02/24 06:12:48;;;;;;;;;;;;;;;;;;5069215;28;20023;-75
2024/02/24 06:15:15;;;;;;;;;;;;;;;;;;5067520;28;19912;-77
2024/02/24 06:17:40;;;;;;;;;;;;;;;;;;5068752;28;19919;-77
2024/02/24 06:20:06;;;;;;;;;;;;;;;;;;5069020;28;19908;-77
2024/02/24 06:22:31;;;;;;;;;;;;;;;;;;5066112;28;19966;-77
2024/02/24 06:24:56;;;;;;;;;;;;;;;;;;5066421;28;19931;-77
2024/02/24 06:27:21;;;;;;;;;;;;;;;;;;5068028;28;19918;-77
2024/02/24 06:29:46;;;;;;;;;;;;;;;;;;5069250;28;19966;-77
2024/02/24 06:32:11;;;;;;;;;;;;;;;;;;5069383;28;19924;-76
2024/02/24 06:34:36;;;;;;;;;;;;;;;;;;5068805;28;20261;-76
2024/02/24 06:37:02;;;;;;;;;;;;;;;;;;5069521;28;20021;-76
2024/02/24 06:39:27;;;;;;;;;;;;;;;;;;5071095;28;20338;-76
2024/02/24 06:41:52;;;;;;;;;;;;;;;;;;5066188;28;20346;-75
2024/02/24 06:44:50;;;;;;;;;;;;;;;;;;5066456;28;19925;-76
2024/02/24 06:47:09;;;;;;;;;;;;;;;;;;5068262;28;19917;-76
2024/02/24 06:49:34;;;;;;;;;;;;;;;;;;5069677;28;20305;-76
2024/02/24 06:51:59;;;;;;;;;;;;;;;;;;5068058;28;20307;-75
2024/02/24 06:54:24;;;;;;;;;;;;;;;;;;5063773;28;20353;-76
2024/02/24 06:56:52;;;;;;;;;;;;;;;;;;5068918;28;19985;-77
2024/02/24 06:59:34;;;;;;;;;;;;;;;;;;5062618;28;19923;-75
2024/02/24 07:01:59;;;;;;;;;;;;;;;;;;5062913;28;19917;-74
2024/02/24 07:04:25;;;;;;;;;;;;;;;;;;5065590;28;19917;-75
2024/02/24 07:06:50;;;;;;;;;;;;;;;;;;5068287;28;20009;-74
2024/02/24 07:09:15;;;;;;;;;;;;;;;;;;5068068;28;19939;-75
2024/02/24 07:11:40;;;;;;;;;;;;;;;;;;5067958;28;19951;-74
2024/02/24 07:14:05;;;;;;;;;;;;;;;;;;5067725;28;19917;-75
2024/02/24 07:16:30;;;;;;;;;;;;;;;;;;5068751;28;19966;-74
2024/02/24 07:18:55;;;;;;;;;;;;;;;;;;5064902;28;20204;-74
2024/02/24 07:21:21;;;;;;;;;;;;;;;;;;5068076;28;19974;-74
2024/02/24 07:23:47;;;;;;;;;;;;;;;;;;5066021;28;19988;-74
2024/02/24 07:26:12;;;;;;;;;;;;;;;;;;5066158;28;19912;-75
2024/02/24 07:31:21;;;;;;;;;;;;;;;;;;5069470;28;19919;-75
2024/02/24 07:33:48;;;;;;;;;;;;;;;;;;5072478;28;19920;-74
2024/02/24 07:36:13;;;;;;;;;;;;;;;;;;5071809;28;19913;-75
2024/02/24 07:38:38;;;;;;;;;;;;;;;;;;5074857;28;19919;-75
2024/02/24 07:41:03;;;;;;;;;;;;;;;;;;5071535;28;19981;-75
2024/02/24 07:43:28;;;;;;;;;;;;;;;;;;5068535;28;19928;-75
2024/02/24 07:45:53;;;;;;;;;;;;;;;;;;5071787;28;19912;-75
2024/02/24 07:48:19;;;;;;;;;;;;;;;;;;5072958;28;19927;-76
2024/02/24 07:50:45;;;;;;;;;;;;;;;;;;5072705;28;19934;-75
2024/02/24 07:53:10;;;;;;;;;;;;;;;;;;5073937;28;19916;-75
2024/02/24 07:55:35;;;;;;;;;;;;;;;;;;5053738;28;19913;-75
2024/02/24 07:58:00;;;;;;;;;;;;;;;;;;5071108;28;20379;-75
2024/02/24 08:00:25;;;;;;;;;;;;;;;;;;5071773;28;19916;-75
2024/02/24 08:05:34;;;;;;;;;;;;;;;;;;5075566;28;19935;-77
2024/02/24 08:07:59;;;;;;;;;;;;;;;;;;5077329;28;20365;-74
2024/02/24 08:10:24;;;;;;;;;;;;;;;;;;5076321;28;20009;-74
2024/02/24 08:12:50;;;;;;;;;;;;;;;;;;5077236;28;19923;-74
2024/02/24 08:15:15;;;;;;;;;;;;;;;;;;5073297;28;19930;-73
2024/02/24 08:17:41;;;;;;;;;;;;;;;;;;5074961;28;20376;-76
2024/02/24 08:20:07;;;;;;;;;;;;;;;;;;5073685;28;20102;-77
2024/02/24 08:22:32;;;;;;;;;;;;;;;;;;5071338;28;20439;-76
2024/02/24 08:24:58;;;;;;;;;;;;;;;;;;5071700;28;19919;-77
2024/02/24 08:27:23;;;;;;;;;;;;;;;;;;5070529;28;20066;-76
2024/02/24 08:29:48;;;;;;;;;;;;;;;;;;5071697;28;19912;-77
2024/02/24 08:32:13;;;;;;;;;;;;;;;;;;5073823;28;19959;-75
2024/02/24 08:34:40;;;;;;;;;;;;;;;;;;5072145;28;20000;-76
2024/02/24 08:37:14;;;;;;;;;;;;;;;;;;5071153;28;20364;-77
2024/02/24 08:39:42;;;;;;;;;;;;;;;;;;5073636;28;19927;-76
2024/02/24 08:42:25;;;;;;;;;;;;;;;;;;5068589;28;20015;-77
2024/02/24 08:44:53;;;;;;;;;;;;;;;;;;5075208;28;19970;-78
2024/02/24 08:47:18;;;;;;;;;;;;;;;;;;5069295;28;20394;-74
2024/02/24 08:49:44;;;;;;;;;;;;;;;;;;5068449;28;20011;-77
2024/02/24 08:52:09;;;;;;;;;;;;;;;;;;5070848;28;19909;-78
2024/02/24 08:54:34;;;;;;;;;;;;;;;;;;5071354;28;19934;-77
2024/02/24 08:57:00;;;;;;;;;;;;;;;;;;5071169;28;20419;-74
2024/02/24 08:59:25;;;;;;;;;;;;;;;;;;5069931;28;19919;-75
2024/02/24 09:01:50;;;;;;;;;;;;;;;;;;5070665;28;19913;-75
2024/02/24 09:04:15;;;;;;;;;;;;;;;;;;5073735;28;20012;-75
2024/02/24 09:06:40;;;;;;;;;;;;;;;;;;5069432;28;20268;-74
2024/02/24 09:09:05;;;;;;;;;;;;;;;;;;5069384;28;19997;-75
2024/02/24 09:11:31;;;;;;;;;;;;;;;;;;5070018;28;19998;-75
2024/02/24 09:13:56;;;;;;;;;;;;;;;;;;5069268;28;19912;-76
2024/02/24 09:16:21;;;;;;;;;;;;;;;;;;5070688;28;19917;-77
2024/02/24 09:18:46;;;;;;;;;;;;;;;;;;5070731;28;20058;-74
2024/02/24 09:21:11;;;;;;;;;;;;;;;;;;5052003;28;19912;-75
2024/02/24 09:23:37;;;;;;;;;;;;;;;;;;5067997;28;19912;-75
2024/02/24 09:26:02;;;;;;;;;;;;;;;;;;5070228;28;20007;-74
2024/02/24 09:28:27;;;;;;;;;;;;;;;;;;5070955;28;20537;-75
2024/02/24 09:30:53;;;;;;;;;;;;;;;;;;5069039;28;20025;-75
2024/02/24 09:33:18;;;;;;;;;;;;;;;;;;5070331;28;20376;-74
2024/02/24 09:35:43;;;;;;;;;;;;;;;;;;5071577;28;19999;-75
2024/02/24 09:38:08;;;;;;;;;;;;;;;;;;5070007;28;19924;-75
2024/02/24 09:40:33;;;;;;;;;;;;;;;;;;5069983;28;19962;-75
2024/02/24 09:42:58;;;;;;;;;;;;;;;;;;5070714;28;19932;-74
2024/02/24 09:45:24;;;;;;;;;;;;;;;;;;5070123;28;20014;-73
2024/02/24 09:47:49;;;;;;;;;;;;;;;;;;5069601;28;19920;-72
2024/02/24 09:50:14;;;;;;;;;;;;;;;;;;5069291;28;20406;-74
2024/02/24 09:52:41;;;;;;;;;;;;;;;;;;5069542;28;19916;-75
2024/02/24 09:55:06;;;;;;;;;;;;;;;;;;5070174;28;19955;-73
2024/02/24 09:57:32;;;;;;;;;;;;;;;;;;5070221;28;20069;-75
2024/02/24 09:59:57;;;;;;;;;;;;;;;;;;5070644;28;19912;-74
2024/02/24 10:02:22;;;;;;;;;;;;;;;;;;5070521;28;20027;-73
2024/02/24 10:04:47;;;;;;;;;;;;;;;;;;5070280;28;19942;-73
2024/02/24 10:07:12;;;;;;;;;;;;;;;;;;5070651;28;20367;-75
2024/02/24 10:09:37;;;;;;;;;;;;;;;;;;5068183;28;20390;-74
2024/02/24 10:12:05;;;;;;;;;;;;;;;;;;5069908;28;19966;-75
2024/02/24 10:14:30;;;;;;;;;;;;;;;;;;5072409;28;19930;-72
2024/02/24 10:16:57;;;;;;;;;;;;;;;;;;5071435;28;19921;-74
2024/02/24 10:19:22;;;;;;;;;;;;;;;;;;5070900;28;20012;-74
2024/02/24 10:21:47;;;;;;;;;;;;;;;;;;5068193;28;20380;-73
2024/02/24 10:24:12;;;;;;;;;;;;;;;;;;5064970;28;20327;-75
2024/02/24 10:26:38;;;;;;;;;;;;;;;;;;5066829;28;19920;-73
2024/02/24 10:29:03;;;;;;;;;;;;;;;;;;5053143;28;19963;-76
2024/02/24 10:31:29;;;;;;;;;;;;;;;;;;5070442;28;19913;-77
2024/02/24 10:33:55;;;;;;;;;;;;;;;;;;5067332;28;19939;-76
2024/02/24 10:36:20;;;;;;;;;;;;;;;;;;5066881;28;19913;-75
2024/02/24 10:38:48;;;;;;;;;;;;;;;;;;5069639;28;19924;-76
2024/02/24 10:41:14;;;;;;;;;;;;;;;;;;5073752;28;19916;-76
2024/02/24 10:43:39;;;;;;;;;;;;;;;;;;5048849;28;19966;-75
2024/02/24 10:46:04;;;;;;;;;;;;;;;;;;5069054;28;19912;-77
2024/02/24 10:48:30;;;;;;;;;;;;;;;;;;5068853;28;19927;-77
2024/02/24 10:50:56;;;;;;;;;;;;;;;;;;5071051;28;20415;-75
2024/02/24 10:53:21;;;;;;;;;;;;;;;;;;5071157;28;19931;-75
2024/02/24 10:55:46;;;;;;;;;;;;;;;;;;5050750;28;19921;-76
2024/02/24 10:58:11;;;;;;;;;;;;;;;;;;5069812;28;20557;-77
2024/02/24 11:00:36;;;;;;;;;;;;;;;;;;5070118;28;20050;-77
2024/02/24 11:03:02;;;;;;;;;;;;;;;;;;5069061;28;20386;-77
2024/02/24 11:05:31;;;;;;;;;;;;;;;;;;5069608;28;19917;-76
2024/02/24 11:07:56;;;;;;;;;;;;;;;;;;5066918;28;20291;-77
2024/02/24 11:10:21;;;;;;;;;;;;;;;;;;5069688;28;19916;-76
2024/02/24 11:12:46;;;;;;;;;;;;;;;;;;5069971;28;19947;-76
2024/02/24 11:15:11;;;;;;;;;;;;;;;;;;5070648;28;19919;-76
2024/02/24 11:17:36;;;;;;;;;;;;;;;;;;5067293;28;19974;-76
2024/02/24 11:20:03;;;;;;;;;;;;;;;;;;5066795;28;20296;-76
2024/02/24 11:22:30;;;;;;;;;;;;;;;;;;5067530;28;19923;-76
2024/02/24 11:24:55;;;;;;;;;;;;;;;;;;5067524;28;20291;-76
2024/02/24 11:27:20;;;;;;;;;;;;;;;;;;5068023;28;20411;-75
2024/02/24 11:29:46;;;;;;;;;;;;;;;;;;5067434;28;20434;-75
2024/02/24 11:32:14;;;;;;;;;;;;;;;;;;5069077;28;19935;-74
2024/02/24 11:34:42;;;;;;;;;;;;;;;;;;5065266;28;19964;-74
2024/02/24 11:37:08;;;;;;;;;;;;;;;;;;5067763;28;20379;-73
2024/02/24 11:39:33;;;;;;;;;;;;;;;;;;5066440;28;19912;-74
2024/02/24 11:41:58;;;;;;;;;;;;;;;;;;5062007;28;19930;-74
2024/02/24 11:44:24;;;;;;;;;;;;;;;;;;5064813;28;19999;-74
2024/02/24 11:46:49;;;;;;;;;;;;;;;;;;5066370;28;19912;-74
2024/02/24 11:49:14;;;;;;;;;;;;;;;;;;5067114;28;19920;-74
2024/02/24 11:51:39;;;;;;;;;;;;;;;;;;5067195;28;19920;-74
2024/02/24 11:54:04;;;;;;;;;;;;;;;;;;5070805;28;19962;-75
2024/02/24 11:56:29;;;;;;;;;;;;;;;;;;5068046;28;19924;-74
2024/02/24 11:58:57;;;;;;;;;;;;;;;;;;5070822;28;19916;-75
2024/02/24 12:01:26;;;;;;;;;;;;;;;;;;5068795;28;19912;-75
2024/02/24 12:04:01;;;;;;;;;;;;;;;;;;5067063;28;19964;-75
2024/02/24 12:06:26;;;;;;;;;;;;;;;;;;5067047;28;19919;-76
2024/02/24 12:08:51;;;;;;;;;;;;;;;;;;5071390;28;19916;-75
2024/02/24 12:11:16;;;;;;;;;;;;;;;;;;5069433;28;19912;-76
2024/02/24 12:13:42;;;;;;;;;;;;;;;;;;5070870;28;19917;-76
2024/02/24 12:16:07;;;;;;;;;;;;;;;;;;5074416;28;19917;-76
2024/02/24 12:18:32;;;;;;;;;;;;;;;;;;5071399;28;19919;-76
2024/02/24 12:20:57;;;;;;;;;;;;;;;;;;5071823;28;20035;-76
2024/02/24 12:23:22;;;;;;;;;;;;;;;;;;5053203;28;19913;-75
2024/02/24 12:25:49;;;;;;;;;;;;;;;;;;5072525;28;19916;-75
2024/02/24 12:28:14;;;;;;;;;;;;;;;;;;5071615;28;19947;-76
2024/02/24 12:30:39;;;;;;;;;;;;;;;;;;5068803;28;19968;-76
2024/02/24 12:33:04;;;;;;;;;;;;;;;;;;5071140;28;19931;-76
2024/02/24 12:35:29;;;;;;;;;;;;;;;;;;5072495;28;20002;-77
2024/02/24 12:37:54;;;;;;;;;;;;;;;;;;5071746;28;20388;-77
2024/02/24 12:40:19;;;;;;;;;;;;;;;;;;5071333;28;20579;-76
2024/02/24 12:42:44;;;;;;;;;;;;;;;;;;5070609;28;19943;-75
2024/02/24 12:45:12;;;;;;;;;;;;;;;;;;5072721;28;22347;-75
2024/02/24 12:47:37;;;;;;;;;;;;;;;;;;5071182;28;20411;-73
2024/02/24 12:50:02;;;;;;;;;;;;;;;;;;5073305;28;19912;-75
2024/02/24 12:52:28;;;;;;;;;;;;;;;;;;5068092;28;19912;-75
2024/02/24 12:54:53;;;;;;;;;;;;;;;;;;5069709;28;20011;-75
2024/02/24 12:57:18;;;;;;;;;;;;;;;;;;5068494;28;19927;-75
2024/02/24 12:59:44;;;;;;;;;;;;;;;;;;5068322;28;19912;-75
2024/02/24 13:02:09;;;;;;;;;;;;;;;;;;5069513;28;20360;-75
2024/02/24 13:04:34;;;;;;;;;;;;;;;;;;5069827;28;20019;-75
2024/02/24 13:06:59;;;;;;;;;;;;;;;;;;5070174;28;19920;-75
2024/02/24 13:09:24;;;;;;;;;;;;;;;;;;5050241;28;19942;-74
2024/02/24 13:11:50;;;;;;;;;;;;;;;;;;5069336;28;19920;-74
2024/02/24 13:14:15;;;;;;;;;;;;;;;;;;5070567;28;19928;-73
2024/02/24 13:16:41;;;;;;;;;;;;;;;;;;5075852;28;19912;-75
2024/02/24 13:19:07;;;;;;;;;;;;;;;;;;5073276;28;19916;-73
2024/02/24 13:21:32;;;;;;;;;;;;;;;;;;5068029;28;19965;-72
2024/02/24 13:23:59;;;;;;;;;;;;;;;;;;5070135;28;19912;-73
2024/02/24 13:26:24;;;;;;;;;;;;;;;;;;5051250;28;19935;-73
2024/02/24 13:28:49;;;;;;;;;;;;;;;;;;5051268;28;20311;-73
2024/02/24 13:31:14;;;;;;;;;;;;;;;;;;5071116;28;19959;-75
2024/02/24 13:33:40;;;;;;;;;;;;;;;;;;5069631;28;20296;-74
2024/02/24 13:36:05;;;;;;;;;;;;;;;;;;5069000;28;19920;-73
2024/02/24 13:38:30;;;;;;;;;;;;;;;;;;5068831;28;20285;-74
2024/02/24 13:40:55;;;;;;;;;;;;;;;;;;5070405;28;19930;-74
2024/02/24 13:43:21;;;;;;;;;;;;;;;;;;5071443;28;19920;-74
2024/02/24 13:45:46;;;;;;;;;;;;;;;;;;5066807;28;19924;-74
2024/02/24 13:48:11;;;;;;;;;;;;;;;;;;5069837;28;20396;-74
2024/02/24 13:50:37;;;;;;;;;;;;;;;;;;5048416;28;19912;-74
2024/02/24 13:53:02;;;;;;;;;;;;;;;;;;5070850;28;19916;-78
2024/02/24 13:55:27;;;;;;;;;;;;;;;;;;5070218;28;20330;-77
2024/02/24 13:57:52;;;;;;;;;;;;;;;;;;5052274;28;19912;-75
2024/02/24 14:00:17;;;;;;;;;;;;;;;;;;5070390;28;19912;-74
2024/02/24 14:02:43;;;;;;;;;;;;;;;;;;5067645;28;19959;-74
2024/02/24 14:05:08;;;;;;;;;;;;;;;;;;5070351;28;19920;-75
2024/02/24 14:07:33;;;;;;;;;;;;;;;;;;5064227;28;20455;-75
2024/02/24 14:09:58;;;;;;;;;;;;;;;;;;5066017;28;19920;-75
2024/02/24 14:12:23;;;;;;;;;;;;;;;;;;5063978;28;19937;-75
2024/02/24 14:14:49;;;;;;;;;;;;;;;;;;5066381;28;19970;-75
2024/02/24 14:17:14;;;;;;;;;;;;;;;;;;5064839;28;19916;-75
2024/02/24 14:19:39;;;;;;;;;;;;;;;;;;5066119;28;19921;-75
2024/02/24 14:22:04;;;;;;;;;;;;;;;;;;5065508;28;19916;-75
2024/02/24 14:24:29;;;;;;;;;;;;;;;;;;5066071;28;19916;-75
2024/02/24 14:26:55;;;;;;;;;;;;;;;;;;5065491;28;20020;-74
2024/02/24 14:29:20;;;;;;;;;;;;;;;;;;5066346;28;19964;-74
2024/02/24 14:31:45;;;;;;;;;;;;;;;;;;5069160;28;20439;-75
2024/02/24 14:34:10;;;;;;;;;;;;;;;;;;5069443;28;19920;-75
2024/02/24 14:36:36;;;;;;;;;;;;;;;;;;5068408;28;19916;-75
2024/02/24 14:39:03;;;;;;;;;;;;;;;;;;5068161;28;19917;-75
2024/02/24 14:41:28;;;;;;;;;;;;;;;;;;5069154;28;19912;-76
2024/02/24 14:43:54;;;;;;;;;;;;;;;;;;5064788;28;19920;-76
2024/02/24 14:46:19;;;;;;;;;;;;;;;;;;5069577;28;19930;-75
2024/02/24 14:48:44;;;;;;;;;;;;;;;;;;5068075;28;19995;-75
2024/02/24 14:51:09;;;;;;;;;;;;;;;;;;5068809;28;20333;-76
2024/02/24 14:53:34;;;;;;;;;;;;;;;;;;5069484;28;19920;-76
2024/02/24 14:55:59;;;;;;;;;;;;;;;;;;5068615;28;20262;-74
2024/02/24 14:58:24;;;;;;;;;;;;;;;;;;5069528;28;19913;-75
2024/02/24 15:00:50;;;;;;;;;;;;;;;;;;5068911;28;19960;-74
2024/02/24 15:03:15;;;;;;;;;;;;;;;;;;5068066;28;20308;-74
2024/02/24 15:05:41;;;;;;;;;;;;;;;;;;5064534;28;19987;-74
2024/02/24 15:08:06;;;;;;;;;;;;;;;;;;5069472;28;19913;-73
2024/02/24 15:10:32;;;;;;;;;;;;;;;;;;5066216;28;19947;-73
2024/02/24 15:12:57;;;;;;;;;;;;;;;;;;5068801;28;19960;-73
2024/02/24 15:15:22;;;;;;;;;;;;;;;;;;5068912;28;19912;-73
2024/02/24 15:17:48;;;;;;;;;;;;;;;;;;5067392;28;19912;-73
2024/02/24 15:20:14;;;;;;;;;;;;;;;;;;5068402;28;19916;-73
2024/02/24 15:22:39;;;;;;;;;;;;;;;;;;5068029;28;19913;-74
2024/02/24 15:25:04;;;;;;;;;;;;;;;;;;5068684;28;19913;-73
2024/02/24 15:27:29;;;;;;;;;;;;;;;;;;5064836;28;19917;-74
2024/02/24 15:29:55;;;;;;;;;;;;;;;;;;5064125;28;19916;-74
2024/02/24 15:32:21;;;;;;;;;;;;;;;;;;5066279;28;19916;-73
2024/02/24 15:34:46;;;;;;;;;;;;;;;;;;5065225;28;19916;-74
2024/02/24 15:37:11;;;;;;;;;;;;;;;;;;5064880;28;19961;-74
2024/02/24 15:39:38;;;;;;;;;;;;;;;;;;5067376;28;19951;-74
2024/02/24 15:42:03;;;;;;;;;;;;;;;;;;5065955;28;20403;-74
2024/02/24 15:44:28;;;;;;;;;;;;;;;;;;5065988;28;19917;-74
2024/02/24 15:46:55;;;;;;;;;;;;;;;;;;5066894;28;19916;-73
2024/02/24 15:49:20;;;;;;;;;;;;;;;;;;5068985;28;20105;-74
2024/02/24 15:51:45;;;;;;;;;;;;;;;;;;5069801;28;20397;-74
2024/02/24 15:54:11;;;;;;;;;;;;;;;;;;5069345;28;19931;-74
2024/02/24 15:56:36;;;;;;;;;;;;;;;;;;5069373;28;19921;-74
2024/02/24 15:59:01;;;;;;;;;;;;;;;;;;5048897;28;19960;-74
2024/02/24 16:01:27;;;;;;;;;;;;;;;;;;5069362;28;20270;-71
2024/02/24 16:03:52;;;;;;;;;;;;;;;;;;5069051;28;20050;-72
2024/02/24 16:06:17;;;;;;;;;;;;;;;;;;5069277;28;19916;-72
2024/02/24 16:08:42;;;;;;;;;;;;;;;;;;5051426;28;19917;-73
2024/02/24 16:11:08;;;;;;;;;;;;;;;;;;5073224;28;19916;-73
2024/02/24 16:13:33;;;;;;;;;;;;;;;;;;5054156;28;19971;-73
2024/02/24 16:16:01;;;;;;;;;;;;;;;;;;5069819;28;20363;-72
2024/02/24 16:18:26;;;;;;;;;;;;;;;;;;5066574;28;19920;-73
2024/02/24 16:20:51;;;;;;;;;;;;;;;;;;5067713;28;19916;-74
2024/02/24 16:23:18;;;;;;;;;;;;;;;;;;5051513;28;19947;-76
2024/02/24 16:25:43;;;;;;;;;;;;;;;;;;5070697;28;20427;-75
2024/02/24 16:28:08;;;;;;;;;;;;;;;;;;5067858;28;19923;-75
2024/02/24 16:30:33;;;;;;;;;;;;;;;;;;5067875;28;19916;-75
2024/02/24 16:32:59;;;;;;;;;;;;;;;;;;5069237;28;19924;-75
2024/02/24 16:35:24;;;;;;;;;;;;;;;;;;5067570;28;19952;-74
2024/02/24 16:37:49;;;;;;;;;;;;;;;;;;5065234;28;20615;-75
2024/02/24 16:40:15;;;;;;;;;;;;;;;;;;5067249;28;19916;-75
2024/02/24 16:42:40;;;;;;;;;;;;;;;;;;5062883;28;19932;-74